Time;durP1;ratioP1;P1;durP2;ratioP2;P2;SDS_P1;SDS_P2;PMS_P1;PMS_P2;Temp;Humidity;BMP_temperature;BMP_pressure;BME280_temperature;BME280_humidity;BME280_pressure;Samples;Min_cycle;Max_cycle;Signal;HPM_P1;HPM_P2
2022/12/19 00:01:01;;;;;;;54.30;27.63;;;0.90;99.90;;;;;;5051668;28;20057;-50
2022/12/19 00:03:27;;;;;;;52.08;28.75;;;0.90;99.90;;;;;;5051332;28;20076;-45
2022/12/19 00:05:54;;;;;;;52.53;28.67;;;0.90;99.90;;;;;;5051128;28;20084;-48
2022/12/19 00:08:21;;;;;;;53.65;27.83;;;0.90;99.90;;;;;;5051683;28;20053;-48
2022/12/19 00:10:56;;;;;;;55.75;28.55;;;1.00;99.90;;;;;;5049608;28;20076;-49
2022/12/19 00:13:22;;;;;;;54.97;28.40;;;1.00;99.90;;;;;;5052314;28;20130;-43
2022/12/19 00:15:49;;;;;;;50.17;25.42;;;1.00;99.90;;;;;;5051469;28;20053;-47
2022/12/19 00:18:16;;;;;;;54.00;26.25;;;1.00;99.90;;;;;;5051024;28;20115;-48
2022/12/19 00:20:43;;;;;;;56.78;30.30;;;1.00;99.90;;;;;;5050738;28;20099;-42
2022/12/19 00:23:10;;;;;;;47.47;26.13;;;1.00;99.90;;;;;;5050764;28;20511;-50
2022/12/19 00:25:36;;;;;;;48.22;22.52;;;1.10;99.90;;;;;;5050654;28;20182;-49
2022/12/19 00:28:07;;;;;;;52.70;29.35;;;1.10;99.90;;;;;;5050846;28;20088;-46
2022/12/19 00:30:34;;;;;;;54.40;28.17;;;1.10;99.90;;;;;;5052594;28;20085;-51
2022/12/19 00:33:01;;;;;;;54.47;25.23;;;1.10;99.90;;;;;;5050425;28;20084;-44
2022/12/19 00:35:28;;;;;;;49.38;24.58;;;1.10;99.90;;;;;;5052819;28;20115;-46
2022/12/19 00:37:54;;;;;;;52.15;27.13;;;1.10;99.90;;;;;;5050553;28;20362;-47
2022/12/19 00:40:21;;;;;;;50.45;26.25;;;1.20;99.90;;;;;;5052285;28;20060;-46
2022/12/19 00:42:48;;;;;;;51.92;28.30;;;1.20;99.90;;;;;;5049622;28;20592;-50
2022/12/19 00:45:16;;;;;;;54.53;28.05;;;1.20;99.90;;;;;;5039469;28;20049;-48
2022/12/19 00:47:43;;;;;;;50.75;27.75;;;1.20;99.90;;;;;;5039585;28;20079;-49
2022/12/19 00:50:10;;;;;;;57.45;28.52;;;1.20;99.90;;;;;;5049507;28;20057;-46
2022/12/19 00:52:37;;;;;;;50.22;27.90;;;1.20;99.90;;;;;;5052052;28;20084;-46
2022/12/19 00:55:04;;;;;;;53.40;27.52;;;1.30;99.90;;;;;;5049590;28;20057;-48
2022/12/19 00:57:31;;;;;;;50.22;27.30;;;1.30;99.90;;;;;;5050959;28;20045;-47
2022/12/19 00:59:58;;;;;;;46.83;24.25;;;1.40;99.90;;;;;;5050237;28;20053;-47
2022/12/19 01:02:26;;;;;;;47.47;22.75;;;1.30;99.90;;;;;;5051527;28;20444;-46
2022/12/19 01:04:53;;;;;;;54.92;28.50;;;1.30;99.90;;;;;;5052730;28;20095;-44
2022/12/19 01:07:20;;;;;;;52.70;27.83;;;1.40;99.90;;;;;;5032564;28;20127;-45
2022/12/19 01:09:47;;;;;;;52.25;26.38;;;1.40;99.90;;;;;;5050928;28;20049;-50
2022/12/19 01:14:58;;;;;;;41.28;20.75;;;1.40;99.90;;;;;;5050714;28;20045;-48
2022/12/19 01:17:26;;;;;;;49.65;26.27;;;1.50;99.90;;;;;;5050418;28;20882;-49
2022/12/19 01:19:53;;;;;;;51.33;25.77;;;1.50;99.90;;;;;;5050616;28;20500;-51
2022/12/19 01:22:20;;;;;;;51.03;26.15;;;1.50;99.90;;;;;;5051010;28;20052;-53
2022/12/19 01:24:47;;;;;;;46.33;23.55;;;1.50;99.90;;;;;;5049105;28;20481;-50
2022/12/19 01:27:13;;;;;;;53.63;27.52;;;1.60;99.90;;;;;;5048920;28;20053;-51
2022/12/19 01:29:40;;;;;;;51.08;26.25;;;1.60;99.90;;;;;;5049109;28;20091;-54
2022/12/19 01:32:07;;;;;;;53.10;27.15;;;1.60;99.90;;;;;;5049275;28;20099;-50
2022/12/19 01:34:35;;;;;;;50.95;26.08;;;1.60;99.90;;;;;;5048365;28;20087;-56
2022/12/19 01:37:02;;;;;;;51.80;26.35;;;1.60;99.90;;;;;;5049946;28;20472;-55
2022/12/19 01:39:29;;;;;;;49.20;26.40;;;1.60;99.90;;;;;;5044328;28;20044;-55
2022/12/19 01:41:57;;;;;;;51.13;28.00;;;1.60;99.90;;;;;;5048527;28;20536;-52
2022/12/19 01:44:24;;;;;;;49.38;26.75;;;1.60;99.90;;;;;;5051218;28;20253;-53
2022/12/19 01:46:52;;;;;;;50.80;26.30;;;1.60;99.90;;;;;;5049548;28;20056;-53
2022/12/19 01:49:21;;;;;;;49.75;26.92;;;1.60;99.90;;;;;;5049073;28;20060;-50
2022/12/19 01:51:49;;;;;;;50.25;26.65;;;1.60;99.90;;;;;;5050673;28;20106;-50
2022/12/19 01:54:19;;;;;;;51.85;27.90;;;1.70;99.90;;;;;;5050553;28;20485;-52
2022/12/19 01:56:48;;;;;;;54.50;27.63;;;1.70;99.90;;;;;;5048944;28;20447;-48
2022/12/19 01:59:17;;;;;;;52.83;28.23;;;1.70;99.90;;;;;;5050734;28;20558;-49
2022/12/19 02:01:47;;;;;;;51.97;25.88;;;1.80;99.90;;;;;;5047464;28;20134;-48
2022/12/19 02:04:14;;;;;;;57.85;29.10;;;1.60;99.90;;;;;;5050475;28;20048;-50
2022/12/19 02:06:41;;;;;;;53.47;26.20;;;1.70;99.90;;;;;;5051528;28;20436;-46
2022/12/19 02:09:09;;;;;;;56.13;28.67;;;1.60;99.90;;;;;;5048091;28;20408;-51
2022/12/19 02:11:36;;;;;;;55.38;27.75;;;1.70;99.90;;;;;;5050795;28;20053;-49
2022/12/19 02:14:03;;;;;;;54.25;28.83;;;1.70;99.90;;;;;;5051311;28;20114;-50
2022/12/19 02:16:36;;;;;;;59.25;29.80;;;1.70;99.90;;;;;;5050449;28;20099;-49
2022/12/19 02:19:09;;;;;;;56.45;28.02;;;1.70;99.90;;;;;;5050948;28;20103;-53
2022/12/19 02:21:42;;;;;;;65.72;31.33;;;1.70;99.90;;;;;;5050918;28;20156;-52
2022/12/19 02:24:56;;;;;;;57.35;26.83;;;1.60;99.90;;;;;;5055727;28;20448;-52
2022/12/19 02:27:56;;;;;;;67.28;30.65;;;1.70;99.90;;;;;;5055457;28;20499;-53
2022/12/19 02:30:51;;;;;;;65.68;31.52;;;1.70;99.90;;;;;;5053624;28;20122;-49
2022/12/19 02:33:21;;;;;;;68.30;31.02;;;1.70;99.90;;;;;;5051940;28;20091;-49
2022/12/19 02:35:53;;;;;;;70.25;31.75;;;1.70;99.90;;;;;;5055609;28;20103;-49
2022/12/19 02:38:24;;;;;;;67.28;30.63;;;1.70;99.90;;;;;;5054485;28;20045;-50
2022/12/19 02:40:58;;;;;;;62.90;28.88;;;1.60;99.90;;;;;;5050710;28;20053;-49
2022/12/19 02:43:25;;;;;;;71.53;33.08;;;1.60;99.90;;;;;;5054090;28;20513;-47
2022/12/19 02:45:53;;;;;;;67.97;32.92;;;1.60;99.90;;;;;;5054492;28;20096;-49
2022/12/19 02:48:20;;;;;;;74.03;33.20;;;1.70;99.90;;;;;;5054245;28;20102;-50
2022/12/19 02:50:47;;;;;;;70.95;33.65;;;1.60;99.90;;;;;;5049636;28;20464;-48
2022/12/19 02:53:15;;;;;;;75.85;34.33;;;1.60;99.90;;;;;;5054417;28;20056;-47
2022/12/19 02:55:47;;;;;;;56.92;24.88;;;1.70;99.90;;;;;;5055547;28;20537;-47
2022/12/19 02:58:35;;;;;;;;;;;1.70;99.90;;;;;;5055841;28;20084;-48
2022/12/19 03:01:07;;;;;;;70.18;32.83;;;1.70;99.90;;;;;;5054110;28;20008;-46
2022/12/19 03:03:39;;;;;;;68.80;34.00;;;1.70;99.90;;;;;;5052893;28;20072;-50
2022/12/19 03:06:11;;;;;;;71.78;32.83;;;1.70;99.90;;;;;;5054993;28;20095;-48
2022/12/19 03:08:39;;;;;;;63.53;30.50;;;1.70;99.90;;;;;;5052506;28;20136;-49
2022/12/19 03:11:07;;;;;;;66.65;30.73;;;1.80;99.90;;;;;;5052679;28;20083;-51
2022/12/19 03:13:35;;;;;;;82.53;36.10;;;1.70;99.90;;;;;;5050772;28;20091;-50
2022/12/19 03:16:03;;;;;;;76.88;36.38;;;1.80;99.90;;;;;;5052461;28;20089;-47
2022/12/19 03:18:31;;;;;;;75.05;35.30;;;1.80;99.90;;;;;;5053153;28;20053;-48
2022/12/19 03:21:02;;;;;;;76.43;36.13;;;1.80;99.90;;;;;;5053146;28;20094;-47
2022/12/19 03:23:29;;;;;;;80.18;35.83;;;2.00;99.90;;;;;;5053808;28;20053;-46
2022/12/19 03:25:57;;;;;;;76.25;36.78;;;1.90;99.90;;;;;;5052691;28;20573;-49
2022/12/19 03:28:26;;;;;;;74.03;33.05;;;1.90;99.90;;;;;;5051839;28;20060;-50
2022/12/19 03:30:53;;;;;;;80.70;35.88;;;1.90;99.90;;;;;;5050563;28;20138;-52
2022/12/19 03:33:21;;;;;;;75.80;34.47;;;2.00;99.90;;;;;;5049717;28;20093;-51
2022/12/19 03:35:48;;;;;;;85.43;40.15;;;2.00;99.90;;;;;;5053072;28;20080;-47
2022/12/19 03:38:15;;;;;;;66.65;30.58;;;2.00;99.90;;;;;;5052001;28;20057;-48
2022/12/19 03:40:42;;;;;;;77.60;37.83;;;2.10;99.90;;;;;;5050478;28;20486;-46
2022/12/19 03:43:08;;;;;;;78.95;34.47;;;2.10;99.90;;;;;;5049907;28;20080;-49
2022/12/19 03:45:42;;;;;;;75.60;35.47;;;2.10;99.90;;;;;;5050445;28;20095;-52
2022/12/19 03:48:10;;;;;;;76.57;35.17;;;2.20;99.90;;;;;;5049345;28;20085;-41
2022/12/19 03:50:45;;;;;;;83.97;40.45;;;2.30;99.90;;;;;;5052975;28;20444;-51
2022/12/19 03:53:15;;;;;;;86.78;39.05;;;2.40;99.90;;;;;;5052873;28;20125;-47
2022/12/19 03:55:44;;;;;;;92.45;40.65;;;2.20;99.90;;;;;;5052527;28;20084;-49
2022/12/19 03:58:13;;;;;;;91.30;41.13;;;2.30;99.90;;;;;;5053264;28;20053;-48
2022/12/19 04:00:41;;;;;;;67.25;32.63;;;2.30;99.90;;;;;;5050969;28;20095;-48
2022/12/19 04:03:08;;;;;;;82.45;38.78;;;2.30;99.90;;;;;;5050113;28;20075;-49
2022/12/19 04:05:35;;;;;;;91.55;43.30;;;2.40;99.90;;;;;;5054046;28;20405;-46
2022/12/19 04:08:05;;;;;;;79.90;38.80;;;2.40;99.90;;;;;;5052035;28;20077;-41
2022/12/19 04:10:33;;;;;;;82.70;40.63;;;2.40;99.90;;;;;;5039800;28;20574;-48
2022/12/19 04:13:01;;;;;;;89.65;39.78;;;2.40;99.90;;;;;;5043531;28;20091;-47
2022/12/19 04:15:32;;;;;;;94.80;43.25;;;2.50;99.90;;;;;;5052016;28;20142;-45
2022/12/19 04:17:59;;;;;;;93.47;43.42;;;2.50;99.90;;;;;;5053404;28;20500;-45
2022/12/19 04:20:26;;;;;;;98.15;43.53;;;2.50;99.90;;;;;;5049902;28;20061;-48
2022/12/19 04:22:56;;;;;;;81.55;37.90;;;2.50;99.90;;;;;;5052280;28;20079;-47
2022/12/19 04:25:25;;;;;;;89.90;41.22;;;2.50;99.90;;;;;;5053499;28;20088;-47
2022/12/19 04:27:54;;;;;;;90.70;41.65;;;2.50;99.90;;;;;;5051026;28;20103;-46
2022/12/19 04:30:20;;;;;;;87.53;42.35;;;2.60;99.90;;;;;;5052398;28;20045;-46
2022/12/19 04:32:47;;;;;;;93.68;43.17;;;2.60;99.90;;;;;;5052353;28;20496;-45
2022/12/19 04:35:14;;;;;;;89.57;43.95;;;2.60;99.90;;;;;;5053210;28;20052;-48
2022/12/19 04:37:41;;;;;;;77.57;34.78;;;2.60;99.90;;;;;;5050744;28;20080;-48
2022/12/19 04:40:09;;;;;;;83.30;38.38;;;2.70;99.90;;;;;;5051607;28;20045;-47
2022/12/19 04:42:37;;;;;;;80.13;35.25;;;2.60;99.90;;;;;;5051423;28;20077;-46
2022/12/19 04:45:04;;;;;;;88.43;40.78;;;2.70;99.90;;;;;;5049992;28;20501;-44
2022/12/19 04:47:31;;;;;;;85.00;40.05;;;2.70;99.90;;;;;;5051389;28;20080;-46
2022/12/19 04:49:58;;;;;;;89.80;40.20;;;2.70;99.90;;;;;;5047240;28;20084;-46
2022/12/19 04:52:24;;;;;;;71.97;33.83;;;2.80;99.90;;;;;;5049224;28;20049;-48
2022/12/19 04:54:51;;;;;;;79.05;37.95;;;2.80;99.90;;;;;;5049389;28;20049;-50
2022/12/19 04:57:18;;;;;;;79.63;37.97;;;2.80;99.90;;;;;;5050144;28;20092;-48
2022/12/19 04:59:46;;;;;;;80.75;38.05;;;2.90;99.90;;;;;;5043624;28;20080;-44
2022/12/19 05:02:15;;;;;;;76.68;37.60;;;2.90;99.90;;;;;;5046909;28;20497;-42
2022/12/19 05:04:42;;;;;;;85.97;37.53;;;3.00;99.90;;;;;;5047497;28;20076;-44
2022/12/19 05:07:08;;;;;;;77.85;36.45;;;2.90;99.90;;;;;;5048065;28;20523;-47
2022/12/19 05:09:38;;;;;;;75.65;36.38;;;2.90;99.90;;;;;;5050262;28;20406;-48
2022/12/19 05:12:05;;;;;;;80.97;37.70;;;3.00;99.90;;;;;;5049436;28;20052;-45
2022/12/19 05:14:32;;;;;;;69.72;33.58;;;3.00;99.90;;;;;;5049868;28;20060;-42
2022/12/19 05:17:00;;;;;;;83.97;38.30;;;3.00;99.90;;;;;;5046716;28;20072;-44
2022/12/19 05:19:27;;;;;;;86.18;38.33;;;3.10;99.90;;;;;;5050036;28;20570;-46
2022/12/19 05:22:03;;;;;;;75.38;36.05;;;3.10;99.90;;;;;;5049843;28;20390;-44
2022/12/19 05:24:30;;;;;;;77.13;37.95;;;3.10;99.90;;;;;;5050038;28;20397;-47
2022/12/19 05:26:56;;;;;;;74.78;35.78;;;3.10;99.90;;;;;;5050919;28;20049;-48
2022/12/19 05:29:23;;;;;;;76.25;36.75;;;3.20;99.90;;;;;;5051326;28;20052;-50
2022/12/19 05:31:50;;;;;;;79.30;35.17;;;3.20;99.90;;;;;;5047140;28;20130;-46
2022/12/19 05:34:18;;;;;;;75.60;34.22;;;3.20;99.90;;;;;;5050504;28;20056;-54
2022/12/19 05:36:45;;;;;;;79.45;35.67;;;3.20;99.90;;;;;;5044389;28;20049;-48
2022/12/19 05:39:12;;;;;;;75.80;36.40;;;3.20;99.90;;;;;;5050075;28;20140;-51
2022/12/19 05:41:39;;;;;;;78.43;35.13;;;3.30;99.90;;;;;;5050378;28;20518;-48
2022/12/19 05:44:06;;;;;;;69.60;33.08;;;3.30;99.90;;;;;;5044850;28;20099;-52
2022/12/19 05:46:32;;;;;;;74.70;33.08;;;3.40;99.90;;;;;;5049051;28;20084;-51
2022/12/19 05:48:59;;;;;;;72.53;33.97;;;3.40;99.90;;;;;;5047023;28;20555;-52
2022/12/19 05:51:27;;;;;;;65.93;31.95;;;3.40;99.90;;;;;;5048917;28;20049;-51
2022/12/19 05:53:54;;;;;;;67.35;32.50;;;3.50;99.90;;;;;;5049342;28;20057;-49
2022/12/19 05:56:22;;;;;;;69.07;32.33;;;3.50;99.90;;;;;;5052789;28;20080;-51
2022/12/19 05:58:49;;;;;;;64.30;32.10;;;3.70;99.90;;;;;;5055403;28;20138;-47
2022/12/19 06:01:17;;;;;;;61.50;30.85;;;3.60;99.90;;;;;;5050068;28;20096;-51
2022/12/19 06:03:43;;;;;;;67.72;31.20;;;3.60;99.90;;;;;;5054380;28;20048;-47
2022/12/19 06:06:11;;;;;;;67.70;30.50;;;3.60;99.90;;;;;;5053216;28;20080;-40
2022/12/19 06:08:40;;;;;;;57.53;29.05;;;3.70;99.90;;;;;;5052803;28;20099;-50
2022/12/19 06:11:08;;;;;;;50.40;25.88;;;3.70;99.90;;;;;;5054225;28;20099;-49
2022/12/19 06:13:35;;;;;;;50.63;26.73;;;3.70;99.90;;;;;;5050487;28;20084;-50
2022/12/19 06:16:02;;;;;;;57.17;27.67;;;3.70;99.90;;;;;;5051859;28;20123;-48
2022/12/19 06:18:29;;;;;;;57.22;27.90;;;3.70;99.90;;;;;;5054532;28;20072;-48
2022/12/19 06:20:57;;;;;;;48.60;24.10;;;3.80;99.90;;;;;;5051112;28;20107;-50
2022/12/19 06:23:24;;;;;;;51.42;24.48;;;3.80;99.90;;;;;;5050461;28;20803;-52
2022/12/19 06:25:53;;;;;;;48.80;25.48;;;3.80;99.90;;;;;;5049282;28;20155;-51
2022/12/19 06:28:20;;;;;;;45.65;23.35;;;3.90;99.90;;;;;;5051866;28;20107;-53
2022/12/19 06:30:46;;;;;;;52.95;25.60;;;3.90;99.90;;;;;;5055008;28;20045;-51
2022/12/19 06:33:13;;;;;;;51.58;25.65;;;3.90;99.90;;;;;;5051011;28;20052;-47
2022/12/19 06:35:40;;;;;;;47.38;23.75;;;4.00;99.90;;;;;;5052470;28;20056;-47
2022/12/19 06:38:07;;;;;;;46.35;24.17;;;4.00;99.90;;;;;;5054011;28;20128;-46
2022/12/19 06:43:28;;;;;;;39.40;21.13;;;4.00;99.90;;;;;;5016088;28;20056;-48
2022/12/19 06:45:56;;;;;;;48.75;24.90;;;4.00;99.90;;;;;;5048370;28;20136;-50
2022/12/19 06:48:23;;;;;;;45.50;22.52;;;4.00;99.90;;;;;;5054266;28;20045;-45
2022/12/19 06:50:50;;;;;;;43.08;21.25;;;4.00;99.90;;;;;;5052250;28;20049;-48
2022/12/19 06:53:20;;;;;;;46.50;24.33;;;4.00;99.90;;;;;;5045103;28;20088;-45
2022/12/19 06:55:47;;;;;;;44.83;23.02;;;4.00;99.90;;;;;;5052081;28;20481;-47
2022/12/19 06:58:13;;;;;;;38.50;20.38;;;4.10;99.90;;;;;;5048137;28;20124;-51
2022/12/19 07:00:42;;;;;;;40.15;22.27;;;4.10;99.90;;;;;;5050574;28;20565;-48
2022/12/19 07:03:09;;;;;;;43.75;22.80;;;4.10;99.90;;;;;;5052165;28;20142;-50
2022/12/19 07:05:36;;;;;;;35.88;19.63;;;4.20;99.90;;;;;;5052725;28;20103;-50
2022/12/19 07:08:03;;;;;;;42.72;22.85;;;4.20;99.90;;;;;;5052816;28;20474;-50
2022/12/19 07:10:30;;;;;;;40.90;21.23;;;4.20;99.90;;;;;;5052768;28;20098;-51
2022/12/19 07:12:57;;;;;;;43.25;23.35;;;4.20;99.90;;;;;;5051474;28;20076;-49
2022/12/19 07:15:24;;;;;;;49.45;23.55;;;4.20;99.90;;;;;;5039544;28;20052;-50
2022/12/19 07:17:52;;;;;;;46.83;23.58;;;4.30;99.90;;;;;;5051555;28;20500;-51
2022/12/19 07:20:19;;;;;;;41.20;22.92;;;4.30;99.90;;;;;;5051979;28;20562;-51
2022/12/19 07:22:45;;;;;;;46.13;22.70;;;4.30;99.90;;;;;;5052187;28;20099;-49
2022/12/19 07:25:12;;;;;;;42.85;22.63;;;4.30;99.90;;;;;;5049071;28;20107;-47
2022/12/19 07:27:39;;;;;;;44.97;23.80;;;4.30;99.90;;;;;;5052178;28;20092;-43
2022/12/19 07:30:07;;;;;;;39.30;21.17;;;4.30;99.90;;;;;;5051594;28;20080;-48
2022/12/19 07:32:34;;;;;;;44.83;22.30;;;4.30;99.90;;;;;;5047082;28;20047;-42
2022/12/19 07:35:02;;;;;;;43.95;23.08;;;4.40;99.90;;;;;;5048252;28;20081;-48
2022/12/19 07:37:29;;;;;;;41.58;21.67;;;4.40;99.90;;;;;;5046917;28;20134;-48
2022/12/19 07:39:56;;;;;;;42.28;22.60;;;4.40;99.90;;;;;;5047804;28;20049;-50
2022/12/19 07:42:23;;;;;;;40.08;21.98;;;4.40;99.90;;;;;;5050973;28;20588;-51
2022/12/19 07:44:49;;;;;;;36.60;19.40;;;4.50;99.90;;;;;;5049727;28;20095;-46
2022/12/19 07:47:16;;;;;;;37.25;21.23;;;4.50;99.90;;;;;;5050157;28;20110;-45
2022/12/19 07:49:43;;;;;;;40.65;21.42;;;4.60;99.90;;;;;;5042735;28;20051;-48
2022/12/19 07:52:11;;;;;;;42.92;22.75;;;4.50;99.90;;;;;;5047731;28;20056;-45
2022/12/19 07:54:39;;;;;;;35.33;20.38;;;4.60;99.90;;;;;;5045382;28;20134;-46
2022/12/19 07:57:06;;;;;;;44.20;21.88;;;4.60;99.90;;;;;;5050165;28;20052;-49
2022/12/19 07:59:33;;;;;;;35.60;20.05;;;4.60;99.90;;;;;;5047162;28;20110;-44
2022/12/19 08:02:00;;;;;;;37.88;21.23;;;4.70;99.90;;;;;;5046367;28;20115;-50
2022/12/19 08:04:27;;;;;;;37.75;21.95;;;4.70;99.90;;;;;;5050949;28;20114;-46
2022/12/19 08:06:55;;;;;;;36.42;20.55;;;4.80;99.90;;;;;;5050932;28;20462;-49
2022/12/19 08:09:26;;;;;;;38.28;19.92;;;4.70;99.90;;;;;;5049173;28;20060;-47
2022/12/19 08:11:53;;;;;;;29.23;16.35;;;4.70;99.90;;;;;;5045920;28;20513;-52
2022/12/19 08:14:20;;;;;;;39.55;21.77;;;4.80;99.90;;;;;;5049369;28;20135;-47
2022/12/19 08:16:47;;;;;;;41.45;22.27;;;4.80;99.90;;;;;;5046091;28;20170;-42
2022/12/19 08:19:13;;;;;;;36.05;19.38;;;4.90;99.90;;;;;;5041017;28;20099;-49
2022/12/19 08:21:40;;;;;;;47.38;23.38;;;4.90;99.90;;;;;;5048959;28;20075;-48
2022/12/19 08:24:07;;;;;;;37.58;22.48;;;4.90;99.90;;;;;;5048452;28;20045;-45
2022/12/19 08:26:35;;;;;;;43.60;22.40;;;4.90;99.90;;;;;;5049769;28;20084;-46
2022/12/19 08:29:03;;;;;;;39.10;22.00;;;5.00;99.90;;;;;;5047885;28;20052;-52
2022/12/19 08:31:29;;;;;;;36.97;20.73;;;5.00;99.90;;;;;;5049629;28;20397;-46
2022/12/19 08:33:56;;;;;;;36.35;21.42;;;5.00;99.90;;;;;;5047445;28;20044;-44
2022/12/19 08:36:23;;;;;;;38.75;20.63;;;5.10;99.90;;;;;;5051747;28;20053;-48
2022/12/19 08:38:50;;;;;;;37.83;20.77;;;5.10;99.90;;;;;;5045414;28;20107;-48
2022/12/19 08:41:17;;;;;;;38.03;20.75;;;5.10;99.90;;;;;;5045672;28;20098;-47
2022/12/19 08:43:48;;;;;;;42.35;21.73;;;5.10;99.90;;;;;;5050204;28;20111;-43
2022/12/19 08:46:16;;;;;;;42.00;21.87;;;5.20;99.90;;;;;;5048324;28;20128;-50
2022/12/19 08:48:43;;;;;;;38.60;21.17;;;5.20;99.90;;;;;;5050897;28;20330;-45
2022/12/19 08:51:10;;;;;;;40.63;21.73;;;5.20;99.90;;;;;;5042685;28;20563;-48
2022/12/19 08:53:38;;;;;;;36.85;21.52;;;5.30;99.90;;;;;;5049876;28;20124;-43
2022/12/19 08:56:06;;;;;;;30.92;19.52;;;5.30;99.90;;;;;;5048331;28;20134;-48
2022/12/19 08:58:33;;;;;;;32.53;19.05;;;5.40;99.90;;;;;;5034907;28;20049;-45
2022/12/19 09:01:03;;;;;;;38.83;20.55;;;5.40;99.90;;;;;;5039985;28;20107;-47
2022/12/19 09:03:30;;;;;;;38.15;20.27;;;5.50;99.90;;;;;;5049500;28;20056;-43
2022/12/19 09:05:57;;;;;;;36.80;20.85;;;5.50;99.90;;;;;;5047251;28;20114;-42
2022/12/19 09:08:24;;;;;;;32.15;18.75;;;5.60;99.90;;;;;;5049349;28;20092;-47
2022/12/19 09:10:51;;;;;;;35.88;21.17;;;5.60;99.90;;;;;;5043719;28;20045;-45
2022/12/19 09:13:18;;;;;;;29.65;18.23;;;5.60;99.90;;;;;;5049498;28;20053;-44
2022/12/19 09:15:44;;;;;;;37.90;22.42;;;5.70;99.90;;;;;;5048378;28;20543;-43
2022/12/19 09:18:13;;;;;;;42.72;22.17;;;5.80;99.90;;;;;;5048252;28;20449;-42
2022/12/19 09:20:39;;;;;;;39.75;23.05;;;5.80;99.90;;;;;;5051287;28;20095;-45
2022/12/19 09:23:06;;;;;;;35.67;19.83;;;5.80;99.90;;;;;;5047299;28;20448;-43
2022/12/19 09:25:33;;;;;;;42.88;25.25;;;5.80;99.90;;;;;;5050272;28;20138;-45
2022/12/19 09:28:00;;;;;;;41.42;23.60;;;5.90;99.90;;;;;;5047050;28;20442;-43
2022/12/19 09:30:27;;;;;;;35.63;21.52;;;5.90;99.90;;;;;;5043505;28;20049;-47
2022/12/19 09:32:54;;;;;;;44.05;24.65;;;6.00;99.90;;;;;;5048584;28;20060;-40
2022/12/19 09:35:22;;;;;;;43.25;24.67;;;6.10;99.90;;;;;;5050407;28;20072;-45
2022/12/19 09:37:49;;;;;;;39.88;23.67;;;6.10;99.90;;;;;;5048780;28;20061;-43
2022/12/19 09:40:17;;;;;;;44.40;25.17;;;6.10;99.90;;;;;;5041845;28;20057;-43
2022/12/19 09:42:53;;;;;;;39.40;24.42;;;6.20;99.90;;;;;;5046838;28;20041;-46
2022/12/19 09:45:31;;;;;;;39.58;23.70;;;6.20;99.90;;;;;;5047386;28;20092;-46
2022/12/19 09:47:58;;;;;;;37.50;21.33;;;6.30;99.90;;;;;;5048765;28;20053;-44
2022/12/19 09:50:42;;;;;;;41.50;23.50;;;6.30;99.90;;;;;;5047437;28;20580;-47
2022/12/19 09:53:16;;;;;;;52.72;25.35;;;6.40;99.90;;;;;;5044225;28;20095;-47
2022/12/19 09:55:42;;;;;;;44.90;24.98;;;6.40;99.90;;;;;;5047453;28;20052;-46
2022/12/19 09:58:12;;;;;;;42.00;23.60;;;6.50;99.90;;;;;;5049334;28;20103;-50
2022/12/19 10:00:40;;;;;;;40.55;21.40;;;6.50;99.90;;;;;;5048994;28;20136;-52
2022/12/19 10:03:12;;;;;;;38.63;22.40;;;6.50;99.90;;;;;;5047824;28;20060;-45
2022/12/19 10:05:41;;;;;;;33.30;19.88;;;6.50;99.90;;;;;;5043771;28;20118;-48
2022/12/19 10:08:13;;;;;;;33.35;20.27;;;6.50;99.90;;;;;;5044288;28;20136;-44
2022/12/19 10:10:44;;;;;;;30.58;19.17;;;6.60;99.90;;;;;;5044813;28;20088;-49
2022/12/19 10:13:15;;;;;;;31.40;19.58;;;6.70;99.90;;;;;;5045165;28;20048;-49
2022/12/19 10:15:46;;;;;;;34.42;20.80;;;6.70;99.90;;;;;;5050085;28;20141;-45
2022/12/19 10:18:32;;;;;;;29.45;19.25;;;6.70;99.90;;;;;;5047375;28;20095;-44
2022/12/19 10:21:04;;;;;;;31.50;19.70;;;6.90;99.90;;;;;;5048779;28;20103;-39
2022/12/19 10:23:39;;;;;;;;;;;6.80;99.90;;;;;;5050239;28;20049;-43
2022/12/19 10:26:08;;;;;;;31.83;18.92;;;6.80;99.90;;;;;;5029964;28;19936;-45
2022/12/19 10:28:45;;;;;;;31.75;19.38;;;6.80;99.90;;;;;;5047510;28;20049;-48
2022/12/19 10:31:14;;;;;;;28.30;17.77;;;6.80;99.90;;;;;;5047369;28;20080;-48
2022/12/19 10:33:43;;;;;;;29.80;19.05;;;6.90;99.90;;;;;;5042367;28;20049;-44
2022/12/19 10:36:12;;;;;;;34.53;19.67;;;6.90;99.90;;;;;;5044485;28;20111;-44
2022/12/19 10:38:40;;;;;;;30.70;18.98;;;6.90;99.90;;;;;;5048220;28;20085;-45
2022/12/19 10:41:13;;;;;;;30.30;18.20;;;7.00;99.90;;;;;;5049969;28;20092;-49
2022/12/19 10:43:45;;;;;;;27.55;17.63;;;7.00;99.90;;;;;;5049034;28;20463;-53
2022/12/19 10:46:15;;;;;;;28.27;18.23;;;7.00;99.90;;;;;;5050194;28;20412;-49
2022/12/19 10:48:42;;;;;;;29.60;18.33;;;7.00;99.90;;;;;;5047627;28;20103;-51
2022/12/19 10:51:13;;;;;;;29.27;18.92;;;7.10;99.90;;;;;;5043184;28;20132;-51
2022/12/19 10:53:40;;;;;;;27.33;16.15;;;7.10;99.90;;;;;;5053284;28;20045;-48
2022/12/19 10:56:12;;;;;;;29.60;17.63;;;7.20;99.90;;;;;;5052754;28;20045;-49
2022/12/19 10:58:42;;;;;;;28.83;18.40;;;7.10;99.90;;;;;;5052263;28;20060;-45
2022/12/19 11:01:13;;;;;;;25.52;15.48;;;7.20;99.90;;;;;;5051226;28;20084;-46
2022/12/19 11:03:41;;;;;;;26.75;17.13;;;7.20;99.90;;;;;;5051092;28;20520;-50
2022/12/19 11:06:39;;;;;;;30.23;17.02;;;7.20;99.90;;;;;;5052873;28;20060;-45
2022/12/19 11:09:19;;;;;;;29.33;17.10;;;7.30;99.90;;;;;;5050717;28;20045;-41
2022/12/19 11:11:46;;;;;;;24.58;16.27;;;7.30;99.90;;;;;;5049326;28;20080;-49
2022/12/19 11:14:20;;;;;;;25.55;15.68;;;7.30;99.90;;;;;;5049315;28;20052;-44
2022/12/19 11:16:47;;;;;;;22.65;16.20;;;7.40;99.90;;;;;;5051484;28;20057;-48
2022/12/19 11:19:22;;;;;;;24.02;15.38;;;7.40;99.90;;;;;;5050469;28;20457;-42
2022/12/19 11:21:50;;;;;;;23.02;14.70;;;7.40;99.90;;;;;;5037853;28;20045;-48
2022/12/19 11:24:22;;;;;;;26.25;15.77;;;7.40;99.90;;;;;;5050753;28;20049;-41
2022/12/19 11:26:50;;;;;;;22.77;14.38;;;7.50;99.90;;;;;;5048977;28;20147;-43
2022/12/19 11:29:19;;;;;;;21.63;14.13;;;7.40;99.90;;;;;;5049709;28;20075;-48
2022/12/19 11:31:46;;;;;;;22.88;15.38;;;7.50;99.90;;;;;;5045755;28;20055;-47
2022/12/19 11:34:14;;;;;;;27.92;15.55;;;7.50;99.90;;;;;;5051936;28;20053;-49
2022/12/19 11:36:44;;;;;;;20.95;15.30;;;7.50;99.90;;;;;;5051634;28;20487;-45
2022/12/19 11:39:16;;;;;;;20.88;13.65;;;7.50;99.90;;;;;;5053262;28;20085;-46
2022/12/19 11:41:44;;;;;;;;;;;7.50;99.90;;;;;;5049858;28;20041;-46
2022/12/19 11:44:13;;;;;;;24.65;14.73;;;7.60;99.90;;;;;;5050705;28;19968;-43
2022/12/19 11:46:43;;;;;;;22.63;14.63;;;7.50;99.90;;;;;;5049135;28;20081;-44
2022/12/19 11:49:14;;;;;;;24.20;15.40;;;7.60;99.90;;;;;;5050936;28;20048;-46
2022/12/19 11:51:43;;;;;;;;;;;7.60;99.90;;;;;;5046770;28;20552;-45
2022/12/19 11:54:14;;;;;;;18.63;13.07;;;7.60;99.90;;;;;;5049473;28;19928;-47
2022/12/19 11:56:41;;;;;;;23.23;15.70;;;7.60;99.90;;;;;;5051012;28;20245;-41
2022/12/19 11:59:12;;;;;;;20.83;14.23;;;7.60;99.90;;;;;;5050187;28;20038;-44
2022/12/19 12:01:42;;;;;;;22.58;14.48;;;7.60;99.90;;;;;;5051714;28;20084;-40
2022/12/19 12:04:51;;;;;;;24.73;15.13;;;7.70;99.90;;;;;;5051420;28;20084;-42
2022/12/19 12:07:17;;;;;;;19.23;12.40;;;7.70;99.90;;;;;;5003124;28;20576;-43
2022/12/19 12:09:49;;;;;;;20.58;14.50;;;7.70;99.90;;;;;;5047601;28;20045;-46
2022/12/19 12:12:22;;;;;;;19.92;14.43;;;7.70;99.90;;;;;;5049299;28;20072;-43
2022/12/19 12:14:58;;;;;;;25.55;16.45;;;7.70;99.90;;;;;;5050560;28;20061;-46
2022/12/19 12:17:35;;;;;;;24.50;13.98;;;7.70;99.90;;;;;;5051697;28;20048;-43
2022/12/19 12:20:10;;;;;;;21.38;13.43;;;7.70;99.90;;;;;;5049609;28;20444;-43
2022/12/19 12:22:45;;;;;;;20.50;13.60;;;7.70;99.90;;;;;;5043186;28;20441;-46
2022/12/19 12:25:21;;;;;;;18.65;12.43;;;7.80;99.90;;;;;;5051230;28;20084;-44
2022/12/19 12:27:50;;;;;;;20.40;14.20;;;7.80;99.90;;;;;;5051105;28;20045;-47
2022/12/19 12:30:18;;;;;;;24.77;14.20;;;7.80;99.90;;;;;;5046199;28;20111;-45
2022/12/19 12:32:53;;;;;;;19.13;13.65;;;7.80;99.90;;;;;;5051128;28;20150;-45
2022/12/19 12:35:28;;;;;;;22.98;14.10;;;7.80;99.90;;;;;;5042276;28;20060;-44
2022/12/19 12:38:00;;;;;;;20.88;13.45;;;7.80;99.90;;;;;;5046597;28;20493;-39
2022/12/19 12:40:54;;;;;;;21.80;13.63;;;7.80;99.90;;;;;;5049715;28;20102;-45
2022/12/19 12:43:28;;;;;;;26.45;14.55;;;7.90;99.90;;;;;;5050033;28;20045;-42
2022/12/19 12:45:55;;;;;;;24.02;13.85;;;7.90;99.90;;;;;;5050602;28;20141;-45
2022/12/19 12:48:24;;;;;;;19.95;13.32;;;7.90;99.90;;;;;;5050717;28;20239;-49
2022/12/19 12:50:51;;;;;;;20.20;13.43;;;7.90;99.90;;;;;;5049821;28;20041;-45
2022/12/19 12:53:19;;;;;;;23.48;12.90;;;7.90;99.90;;;;;;5052059;28;20080;-45